sensor_id;sensor_type;location;lat;lon;timestamp;P1;durP1;ratioP1;P2;durP2;ratioP2
19897;SDS011;10111;50.814;4.572;2023-07-09T00:01:14;13.37;;;6.03;;
19897;SDS011;10111;50.814;4.572;2023-07-09T00:03:42;13.73;;;6.27;;
19897;SDS011;10111;50.814;4.572;2023-07-09T00:06:08;12.67;;;6.90;;
19897;SDS011;10111;50.814;4.572;2023-07-09T00:08:34;13.53;;;6.50;;
19897;SDS011;10111;50.814;4.572;2023-07-09T00:11:00;13.30;;;6.77;;
19897;SDS011;10111;50.814;4.572;2023-07-09T00:13:26;11.73;;;7.50;;
19897;SDS011;10111;50.814;4.572;2023-07-09T00:15:53;13.33;;;6.50;;
19897;SDS011;10111;50.814;4.572;2023-07-09T00:18:23;17.20;;;5.87;;
19897;SDS011;10111;50.814;4.572;2023-07-09T00:20:49;11.63;;;6.17;;
19897;SDS011;10111;50.814;4.572;2023-07-09T00:23:15;18.33;;;7.57;;
19897;SDS011;10111;50.814;4.572;2023-07-09T00:25:41;14.40;;;6.70;;
19897;SDS011;10111;50.814;4.572;2023-07-09T00:28:16;15.53;;;7.10;;
19897;SDS011;10111;50.814;4.572;2023-07-09T00:30:46;17.07;;;6.53;;
19897;SDS011;10111;50.814;4.572;2023-07-09T00:33:16;22.53;;;6.83;;
19897;SDS011;10111;50.814;4.572;2023-07-09T00:35:45;20.43;;;6.50;;
19897;SDS011;10111;50.814;4.572;2023-07-09T00:38:14;20.00;;;7.10;;
19897;SDS011;10111;50.814;4.572;2023-07-09T00:40:47;15.67;;;6.70;;
19897;SDS011;10111;50.814;4.572;2023-07-09T00:43:21;18.63;;;7.13;;
19897;SDS011;10111;50.814;4.572;2023-07-09T00:46:07;12.27;;;6.83;;
19897;SDS011;10111;50.814;4.572;2023-07-09T00:48:42;26.50;;;6.53;;
19897;SDS011;10111;50.814;4.572;2023-07-09T00:51:13;25.50;;;7.77;;
19897;SDS011;10111;50.814;4.572;2023-07-09T00:53:41;18.93;;;7.17;;
19897;SDS011;10111;50.814;4.572;2023-07-09T00:56:11;17.60;;;6.80;;
19897;SDS011;10111;50.814;4.572;2023-07-09T00:58:45;27.43;;;8.50;;
19897;SDS011;10111;50.814;4.572;2023-07-09T01:01:13;19.43;;;9.17;;
19897;SDS011;10111;50.814;4.572;2023-07-09T01:03:47;27.57;;;8.80;;
19897;SDS011;10111;50.814;4.572;2023-07-09T01:06:18;21.60;;;6.43;;
19897;SDS011;10111;50.814;4.572;2023-07-09T01:08:48;19.37;;;7.07;;
19897;SDS011;10111;50.814;4.572;2023-07-09T01:11:19;24.73;;;7.93;;
19897;SDS011;10111;50.814;4.572;2023-07-09T01:13:47;17.70;;;7.40;;
19897;SDS011;10111;50.814;4.572;2023-07-09T01:16:19;29.57;;;7.87;;
19897;SDS011;10111;50.814;4.572;2023-07-09T01:18:49;26.17;;;8.30;;
19897;SDS011;10111;50.814;4.572;2023-07-09T01:21:15;31.27;;;6.77;;
19897;SDS011;10111;50.814;4.572;2023-07-09T01:23:42;30.33;;;8.00;;
19897;SDS011;10111;50.814;4.572;2023-07-09T01:26:42;32.97;;;9.67;;
19897;SDS011;10111;50.814;4.572;2023-07-09T01:29:03;20.20;;;7.97;;
19897;SDS011;10111;50.814;4.572;2023-07-09T01:31:29;27.37;;;8.07;;
19897;SDS011;10111;50.814;4.572;2023-07-09T01:33:55;35.70;;;8.53;;
19897;SDS011;10111;50.814;4.572;2023-07-09T01:36:21;24.80;;;7.33;;
19897;SDS011;10111;50.814;4.572;2023-07-09T01:38:47;25.40;;;7.97;;
19897;SDS011;10111;50.814;4.572;2023-07-09T01:41:14;36.00;;;8.70;;
19897;SDS011;10111;50.814;4.572;2023-07-09T01:43:41;31.87;;;10.20;;
19897;SDS011;10111;50.814;4.572;2023-07-09T01:46:07;26.37;;;8.03;;
19897;SDS011;10111;50.814;4.572;2023-07-09T01:48:34;31.20;;;8.53;;
19897;SDS011;10111;50.814;4.572;2023-07-09T01:51:06;29.67;;;7.87;;
19897;SDS011;10111;50.814;4.572;2023-07-09T01:53:34;25.97;;;8.70;;
19897;SDS011;10111;50.814;4.572;2023-07-09T01:56:02;27.63;;;8.87;;
19897;SDS011;10111;50.814;4.572;2023-07-09T01:58:28;44.87;;;10.40;;
19897;SDS011;10111;50.814;4.572;2023-07-09T02:00:55;49.97;;;9.40;;
19897;SDS011;10111;50.814;4.572;2023-07-09T02:03:21;43.67;;;9.40;;
19897;SDS011;10111;50.814;4.572;2023-07-09T02:05:52;31.40;;;9.17;;
19897;SDS011;10111;50.814;4.572;2023-07-09T02:08:18;32.67;;;8.43;;
19897;SDS011;10111;50.814;4.572;2023-07-09T02:10:44;44.23;;;10.37;;
19897;SDS011;10111;50.814;4.572;2023-07-09T02:13:13;44.93;;;11.27;;
19897;SDS011;10111;50.814;4.572;2023-07-09T02:15:39;37.03;;;9.13;;
19897;SDS011;10111;50.814;4.572;2023-07-09T02:18:08;33.13;;;10.40;;
19897;SDS011;10111;50.814;4.572;2023-07-09T02:20:35;34.50;;;10.20;;
19897;SDS011;10111;50.814;4.572;2023-07-09T02:23:01;34.73;;;8.33;;
19897;SDS011;10111;50.814;4.572;2023-07-09T02:25:27;38.90;;;8.70;;
19897;SDS011;10111;50.814;4.572;2023-07-09T02:27:53;48.07;;;9.90;;
19897;SDS011;10111;50.814;4.572;2023-07-09T02:30:18;40.70;;;9.23;;
19897;SDS011;10111;50.814;4.572;2023-07-09T02:32:44;31.77;;;10.13;;
19897;SDS011;10111;50.814;4.572;2023-07-09T02:35:10;54.00;;;11.37;;
19897;SDS011;10111;50.814;4.572;2023-07-09T02:37:35;33.27;;;9.47;;
19897;SDS011;10111;50.814;4.572;2023-07-09T02:40:02;46.60;;;9.37;;
19897;SDS011;10111;50.814;4.572;2023-07-09T02:42:29;50.93;;;12.97;;
19897;SDS011;10111;50.814;4.572;2023-07-09T02:44:55;46.93;;;10.13;;
19897;SDS011;10111;50.814;4.572;2023-07-09T02:47:20;54.97;;;11.13;;
19897;SDS011;10111;50.814;4.572;2023-07-09T02:49:46;47.73;;;9.10;;
19897;SDS011;10111;50.814;4.572;2023-07-09T02:52:12;48.53;;;11.10;;
19897;SDS011;10111;50.814;4.572;2023-07-09T02:54:38;34.63;;;9.77;;
19897;SDS011;10111;50.814;4.572;2023-07-09T02:57:04;45.70;;;9.07;;
19897;SDS011;10111;50.814;4.572;2023-07-09T02:59:30;50.30;;;11.67;;
19897;SDS011;10111;50.814;4.572;2023-07-09T03:01:56;44.00;;;9.07;;
19897;SDS011;10111;50.814;4.572;2023-07-09T03:04:22;36.43;;;9.33;;
19897;SDS011;10111;50.814;4.572;2023-07-09T03:06:47;49.80;;;11.63;;
19897;SDS011;10111;50.814;4.572;2023-07-09T03:09:13;42.33;;;9.57;;
19897;SDS011;10111;50.814;4.572;2023-07-09T03:11:39;40.07;;;9.83;;
19897;SDS011;10111;50.814;4.572;2023-07-09T03:14:05;39.63;;;10.60;;
19897;SDS011;10111;50.814;4.572;2023-07-09T03:16:32;32.57;;;9.03;;
19897;SDS011;10111;50.814;4.572;2023-07-09T03:18:59;48.53;;;8.73;;
19897;SDS011;10111;50.814;4.572;2023-07-09T03:21:25;50.87;;;9.50;;
19897;SDS011;10111;50.814;4.572;2023-07-09T03:23:52;36.90;;;9.50;;
19897;SDS011;10111;50.814;4.572;2023-07-09T03:26:18;43.60;;;9.17;;
19897;SDS011;10111;50.814;4.572;2023-07-09T03:28:44;44.03;;;8.47;;
19897;SDS011;10111;50.814;4.572;2023-07-09T03:31:10;39.17;;;8.60;;
19897;SDS011;10111;50.814;4.572;2023-07-09T03:33:35;37.27;;;8.43;;
19897;SDS011;10111;50.814;4.572;2023-07-09T03:36:01;30.20;;;7.90;;
19897;SDS011;10111;50.814;4.572;2023-07-09T03:38:29;26.10;;;8.77;;
19897;SDS011;10111;50.814;4.572;2023-07-09T03:40:55;44.60;;;10.20;;
19897;SDS011;10111;50.814;4.572;2023-07-09T03:43:21;33.07;;;9.13;;
19897;SDS011;10111;50.814;4.572;2023-07-09T03:45:48;30.37;;;8.67;;
19897;SDS011;10111;50.814;4.572;2023-07-09T03:48:14;40.27;;;8.13;;
19897;SDS011;10111;50.814;4.572;2023-07-09T03:50:45;37.90;;;9.80;;
19897;SDS011;10111;50.814;4.572;2023-07-09T03:53:12;41.23;;;7.93;;
19897;SDS011;10111;50.814;4.572;2023-07-09T03:55:39;39.83;;;10.37;;
19897;SDS011;10111;50.814;4.572;2023-07-09T03:58:05;20.80;;;7.73;;
19897;SDS011;10111;50.814;4.572;2023-07-09T04:00:31;29.37;;;8.73;;
19897;SDS011;10111;50.814;4.572;2023-07-09T04:02:57;27.00;;;8.90;;
19897;SDS011;10111;50.814;4.572;2023-07-09T04:05:23;45.77;;;8.83;;
19897;SDS011;10111;50.814;4.572;2023-07-09T04:07:49;30.93;;;9.10;;
19897;SDS011;10111;50.814;4.572;2023-07-09T04:10:16;30.00;;;10.13;;
19897;SDS011;10111;50.814;4.572;2023-07-09T04:12:42;35.77;;;8.80;;
19897;SDS011;10111;50.814;4.572;2023-07-09T04:15:08;28.50;;;7.87;;
19897;SDS011;10111;50.814;4.572;2023-07-09T04:17:34;35.20;;;8.40;;
19897;SDS011;10111;50.814;4.572;2023-07-09T04:20:01;31.63;;;9.10;;
19897;SDS011;10111;50.814;4.572;2023-07-09T04:22:30;24.20;;;9.07;;
19897;SDS011;10111;50.814;4.572;2023-07-09T04:24:57;29.40;;;7.83;;
19897;SDS011;10111;50.814;4.572;2023-07-09T04:27:23;23.30;;;8.27;;
19897;SDS011;10111;50.814;4.572;2023-07-09T04:29:52;34.23;;;8.23;;
19897;SDS011;10111;50.814;4.572;2023-07-09T04:32:19;21.20;;;7.33;;
19897;SDS011;10111;50.814;4.572;2023-07-09T04:34:45;30.80;;;7.27;;
19897;SDS011;10111;50.814;4.572;2023-07-09T04:37:11;22.27;;;9.23;;
19897;SDS011;10111;50.814;4.572;2023-07-09T04:39:38;18.20;;;7.30;;
19897;SDS011;10111;50.814;4.572;2023-07-09T04:42:09;15.13;;;7.00;;
19897;SDS011;10111;50.814;4.572;2023-07-09T04:44:36;15.53;;;7.43;;
19897;SDS011;10111;50.814;4.572;2023-07-09T04:47:02;14.93;;;7.37;;
19897;SDS011;10111;50.814;4.572;2023-07-09T04:49:28;26.00;;;8.73;;
19897;SDS011;10111;50.814;4.572;2023-07-09T04:51:54;11.10;;;6.93;;
19897;SDS011;10111;50.814;4.572;2023-07-09T04:54:21;17.47;;;7.57;;
19897;SDS011;10111;50.814;4.572;2023-07-09T04:56:47;14.53;;;7.70;;
19897;SDS011;10111;50.814;4.572;2023-07-09T04:59:13;11.50;;;6.43;;
19897;SDS011;10111;50.814;4.572;2023-07-09T05:01:39;12.63;;;7.17;;
19897;SDS011;10111;50.814;4.572;2023-07-09T05:04:05;13.30;;;7.30;;
19897;SDS011;10111;50.814;4.572;2023-07-09T05:06:32;12.93;;;6.67;;
19897;SDS011;10111;50.814;4.572;2023-07-09T05:09:00;12.37;;;6.60;;
19897;SDS011;10111;50.814;4.572;2023-07-09T05:11:25;11.87;;;6.43;;
19897;SDS011;10111;50.814;4.572;2023-07-09T05:13:51;13.60;;;7.03;;
19897;SDS011;10111;50.814;4.572;2023-07-09T05:16:17;12.17;;;7.17;;
19897;SDS011;10111;50.814;4.572;2023-07-09T05:18:42;9.37;;;6.50;;
19897;SDS011;10111;50.814;4.572;2023-07-09T05:21:10;10.57;;;6.20;;
19897;SDS011;10111;50.814;4.572;2023-07-09T05:23:35;14.90;;;6.97;;
19897;SDS011;10111;50.814;4.572;2023-07-09T05:26:02;7.70;;;6.83;;
19897;SDS011;10111;50.814;4.572;2023-07-09T05:28:29;9.63;;;7.57;;
19897;SDS011;10111;50.814;4.572;2023-07-09T05:30:55;8.87;;;5.77;;
19897;SDS011;10111;50.814;4.572;2023-07-09T05:33:21;8.30;;;6.30;;
19897;SDS011;10111;50.814;4.572;2023-07-09T05:35:47;8.13;;;6.07;;
19897;SDS011;10111;50.814;4.572;2023-07-09T05:38:13;6.13;;;5.50;;
19897;SDS011;10111;50.814;4.572;2023-07-09T05:40:39;7.43;;;5.63;;
19897;SDS011;10111;50.814;4.572;2023-07-09T05:43:06;10.40;;;5.40;;
19897;SDS011;10111;50.814;4.572;2023-07-09T05:45:32;7.40;;;6.13;;
19897;SDS011;10111;50.814;4.572;2023-07-09T05:47:58;8.47;;;5.80;;
19897;SDS011;10111;50.814;4.572;2023-07-09T05:50:24;7.67;;;5.53;;
19897;SDS011;10111;50.814;4.572;2023-07-09T05:52:51;8.37;;;4.93;;
19897;SDS011;10111;50.814;4.572;2023-07-09T05:55:16;9.03;;;5.47;;
19897;SDS011;10111;50.814;4.572;2023-07-09T05:57:42;7.83;;;5.70;;
19897;SDS011;10111;50.814;4.572;2023-07-09T06:00:08;7.47;;;5.67;;
19897;SDS011;10111;50.814;4.572;2023-07-09T06:02:34;7.37;;;5.17;;
19897;SDS011;10111;50.814;4.572;2023-07-09T06:05:00;8.93;;;5.27;;
19897;SDS011;10111;50.814;4.572;2023-07-09T06:07:26;8.33;;;5.80;;
19897;SDS011;10111;50.814;4.572;2023-07-09T06:09:52;6.80;;;4.70;;
19897;SDS011;10111;50.814;4.572;2023-07-09T06:12:18;6.83;;;5.03;;
19897;SDS011;10111;50.814;4.572;2023-07-09T06:14:44;5.50;;;4.10;;
19897;SDS011;10111;50.814;4.572;2023-07-09T06:17:13;6.03;;;5.03;;
19897;SDS011;10111;50.814;4.572;2023-07-09T06:19:39;8.30;;;4.90;;
19897;SDS011;10111;50.814;4.572;2023-07-09T06:22:05;7.57;;;5.30;;
19897;SDS011;10111;50.814;4.572;2023-07-09T06:24:30;6.50;;;5.03;;
19897;SDS011;10111;50.814;4.572;2023-07-09T06:26:56;6.50;;;4.37;;
19897;SDS011;10111;50.814;4.572;2023-07-09T06:29:22;11.33;;;4.90;;
19897;SDS011;10111;50.814;4.572;2023-07-09T06:31:48;6.63;;;4.73;;
19897;SDS011;10111;50.814;4.572;2023-07-09T06:34:13;8.27;;;5.20;;
19897;SDS011;10111;50.814;4.572;2023-07-09T06:36:39;7.13;;;5.00;;
19897;SDS011;10111;50.814;4.572;2023-07-09T06:39:05;7.07;;;4.93;;
19897;SDS011;10111;50.814;4.572;2023-07-09T06:41:31;7.07;;;4.30;;
19897;SDS011;10111;50.814;4.572;2023-07-09T06:43:57;7.13;;;4.57;;
19897;SDS011;10111;50.814;4.572;2023-07-09T06:46:23;6.03;;;3.90;;
19897;SDS011;10111;50.814;4.572;2023-07-09T06:48:49;6.90;;;4.23;;
19897;SDS011;10111;50.814;4.572;2023-07-09T06:51:14;3.67;;;3.30;;
19897;SDS011;10111;50.814;4.572;2023-07-09T06:53:40;8.33;;;4.63;;
19897;SDS011;10111;50.814;4.572;2023-07-09T06:56:07;5.13;;;3.63;;
19897;SDS011;10111;50.814;4.572;2023-07-09T06:58:33;7.77;;;3.63;;
19897;SDS011;10111;50.814;4.572;2023-07-09T07:01:01;5.20;;;4.37;;
19897;SDS011;10111;50.814;4.572;2023-07-09T07:03:28;6.17;;;4.40;;
19897;SDS011;10111;50.814;4.572;2023-07-09T07:05:55;6.50;;;4.23;;
19897;SDS011;10111;50.814;4.572;2023-07-09T07:08:22;8.00;;;4.27;;
19897;SDS011;10111;50.814;4.572;2023-07-09T07:10:50;7.60;;;4.03;;
19897;SDS011;10111;50.814;4.572;2023-07-09T07:13:30;6.03;;;4.18;;
19897;SDS011;10111;50.814;4.572;2023-07-09T07:15:58;7.47;;;4.78;;
19897;SDS011;10111;50.814;4.572;2023-07-09T07:18:24;5.28;;;4.22;;
19897;SDS011;10111;50.814;4.572;2023-07-09T07:20:50;7.18;;;4.20;;
19897;SDS011;10111;50.814;4.572;2023-07-09T07:23:16;8.07;;;4.57;;
19897;SDS011;10111;50.814;4.572;2023-07-09T07:25:42;6.75;;;3.95;;
19897;SDS011;10111;50.814;4.572;2023-07-09T07:28:09;6.45;;;4.30;;
19897;SDS011;10111;50.814;4.572;2023-07-09T07:30:35;6.35;;;4.05;;
19897;SDS011;10111;50.814;4.572;2023-07-09T07:33:01;4.30;;;3.90;;
19897;SDS011;10111;50.814;4.572;2023-07-09T07:35:26;8.13;;;4.95;;
19897;SDS011;10111;50.814;4.572;2023-07-09T07:37:52;8.52;;;4.53;;
19897;SDS011;10111;50.814;4.572;2023-07-09T07:40:18;4.93;;;4.43;;
19897;SDS011;10111;50.814;4.572;2023-07-09T07:42:44;9.48;;;4.18;;
19897;SDS011;10111;50.814;4.572;2023-07-09T07:45:09;4.82;;;3.70;;
19897;SDS011;10111;50.814;4.572;2023-07-09T07:47:35;6.05;;;3.53;;
19897;SDS011;10111;50.814;4.572;2023-07-09T07:50:01;6.55;;;3.55;;
19897;SDS011;10111;50.814;4.572;2023-07-09T07:52:27;4.30;;;3.70;;
19897;SDS011;10111;50.814;4.572;2023-07-09T07:54:53;4.90;;;4.40;;
19897;SDS011;10111;50.814;4.572;2023-07-09T07:57:19;8.52;;;4.00;;
19897;SDS011;10111;50.814;4.572;2023-07-09T07:59:47;4.05;;;3.65;;
19897;SDS011;10111;50.814;4.572;2023-07-09T08:02:13;5.00;;;3.97;;
19897;SDS011;10111;50.814;4.572;2023-07-09T08:04:39;6.03;;;4.35;;
19897;SDS011;10111;50.814;4.572;2023-07-09T08:07:07;4.78;;;4.18;;
19897;SDS011;10111;50.814;4.572;2023-07-09T08:09:33;4.38;;;3.97;;
19897;SDS011;10111;50.814;4.572;2023-07-09T08:11:59;4.65;;;3.92;;
19897;SDS011;10111;50.814;4.572;2023-07-09T08:14:35;4.80;;;3.78;;
19897;SDS011;10111;50.814;4.572;2023-07-09T08:17:01;8.68;;;5.20;;
19897;SDS011;10111;50.814;4.572;2023-07-09T08:19:27;4.65;;;4.25;;
19897;SDS011;10111;50.814;4.572;2023-07-09T08:21:52;5.30;;;4.40;;
19897;SDS011;10111;50.814;4.572;2023-07-09T08:24:18;5.68;;;4.65;;
19897;SDS011;10111;50.814;4.572;2023-07-09T08:26:44;5.18;;;3.90;;
19897;SDS011;10111;50.814;4.572;2023-07-09T08:29:09;6.50;;;3.90;;
19897;SDS011;10111;50.814;4.572;2023-07-09T08:31:35;5.93;;;4.97;;
19897;SDS011;10111;50.814;4.572;2023-07-09T08:34:01;5.32;;;4.50;;
19897;SDS011;10111;50.814;4.572;2023-07-09T08:36:27;6.05;;;3.95;;
19897;SDS011;10111;50.814;4.572;2023-07-09T08:38:53;6.65;;;4.47;;
19897;SDS011;10111;50.814;4.572;2023-07-09T08:48:59;5.75;;;5.07;;
19897;SDS011;10111;50.814;4.572;2023-07-09T08:54:04;9.32;;;5.60;;
19897;SDS011;10111;50.814;4.572;2023-07-09T08:56:38;6.63;;;5.13;;
19897;SDS011;10111;50.814;4.572;2023-07-09T08:59:04;8.07;;;5.68;;
19897;SDS011;10111;50.814;4.572;2023-07-09T09:01:38;8.18;;;5.47;;
19897;SDS011;10111;50.814;4.572;2023-07-09T09:04:13;6.68;;;5.97;;
19897;SDS011;10111;50.814;4.572;2023-07-09T09:06:57;7.20;;;5.50;;
19897;SDS011;10111;50.814;4.572;2023-07-09T09:09:41;6.85;;;6.07;;
19897;SDS011;10111;50.814;4.572;2023-07-09T09:15:16;7.32;;;6.20;;
19897;SDS011;10111;50.814;4.572;2023-07-09T09:17:43;7.40;;;5.35;;
19897;SDS011;10111;50.814;4.572;2023-07-09T09:20:11;9.07;;;5.90;;
19897;SDS011;10111;50.814;4.572;2023-07-09T09:23:01;7.07;;;6.38;;
19897;SDS011;10111;50.814;4.572;2023-07-09T09:25:35;8.48;;;6.90;;
19897;SDS011;10111;50.814;4.572;2023-07-09T09:28:05;7.78;;;5.25;;
19897;SDS011;10111;50.814;4.572;2023-07-09T09:30:30;11.55;;;6.60;;
19897;SDS011;10111;50.814;4.572;2023-07-09T09:33:06;8.25;;;6.88;;
19897;SDS011;10111;50.814;4.572;2023-07-09T09:35:34;9.02;;;7.15;;
19897;SDS011;10111;50.814;4.572;2023-07-09T09:38:02;8.55;;;5.47;;
19897;SDS011;10111;50.814;4.572;2023-07-09T09:40:35;5.55;;;5.05;;
19897;SDS011;10111;50.814;4.572;2023-07-09T09:43:01;7.15;;;6.05;;
19897;SDS011;10111;50.814;4.572;2023-07-09T09:45:35;6.82;;;5.95;;
19897;SDS011;10111;50.814;4.572;2023-07-09T09:50:56;6.72;;;6.07;;
19897;SDS011;10111;50.814;4.572;2023-07-09T09:53:26;6.50;;;5.82;;
19897;SDS011;10111;50.814;4.572;2023-07-09T09:55:54;7.07;;;5.65;;
19897;SDS011;10111;50.814;4.572;2023-07-09T09:58:25;8.75;;;7.47;;
19897;SDS011;10111;50.814;4.572;2023-07-09T10:00:55;11.02;;;7.55;;
19897;SDS011;10111;50.814;4.572;2023-07-09T10:03:32;13.23;;;6.40;;
19897;SDS011;10111;50.814;4.572;2023-07-09T10:05:59;8.68;;;6.35;;
19897;SDS011;10111;50.814;4.572;2023-07-09T10:08:46;9.40;;;7.07;;
19897;SDS011;10111;50.814;4.572;2023-07-09T10:11:19;9.15;;;6.07;;
19897;SDS011;10111;50.814;4.572;2023-07-09T10:13:51;10.98;;;8.15;;
19897;SDS011;10111;50.814;4.572;2023-07-09T10:16:40;11.20;;;8.80;;
19897;SDS011;10111;50.814;4.572;2023-07-09T10:22:20;11.80;;;7.53;;
19897;SDS011;10111;50.814;4.572;2023-07-09T10:25:13;10.63;;;9.00;;
19897;SDS011;10111;50.814;4.572;2023-07-09T10:33:28;14.98;;;11.75;;
19897;SDS011;10111;50.814;4.572;2023-07-09T10:36:58;16.70;;;11.35;;
19897;SDS011;10111;50.814;4.572;2023-07-09T10:41:59;18.33;;;16.35;;
19897;SDS011;10111;50.814;4.572;2023-07-09T10:44:31;14.75;;;11.43;;
19897;SDS011;10111;50.814;4.572;2023-07-09T10:47:08;22.00;;;12.35;;
19897;SDS011;10111;50.814;4.572;2023-07-09T10:49:38;18.20;;;14.13;;
19897;SDS011;10111;50.814;4.572;2023-07-09T10:52:10;23.08;;;15.77;;
19897;SDS011;10111;50.814;4.572;2023-07-09T10:54:42;18.15;;;14.68;;
19897;SDS011;10111;50.814;4.572;2023-07-09T10:57:19;15.25;;;12.75;;
19897;SDS011;10111;50.814;4.572;2023-07-09T10:59:52;16.98;;;15.07;;
19897;SDS011;10111;50.814;4.572;2023-07-09T11:02:31;17.95;;;13.05;;
19897;SDS011;10111;50.814;4.572;2023-07-09T11:05:00;13.82;;;11.38;;
19897;SDS011;10111;50.814;4.572;2023-07-09T11:07:29;14.45;;;12.90;;
19897;SDS011;10111;50.814;4.572;2023-07-09T11:10:04;17.17;;;12.77;;
19897;SDS011;10111;50.814;4.572;2023-07-09T11:12:44;11.55;;;10.00;;
19897;SDS011;10111;50.814;4.572;2023-07-09T11:15:28;11.63;;;10.43;;
19897;SDS011;10111;50.814;4.572;2023-07-09T11:17:58;12.75;;;11.02;;
19897;SDS011;10111;50.814;4.572;2023-07-09T11:20:25;11.50;;;10.30;;
19897;SDS011;10111;50.814;4.572;2023-07-09T11:23:15;12.52;;;9.95;;
19897;SDS011;10111;50.814;4.572;2023-07-09T11:25:44;14.80;;;11.50;;
19897;SDS011;10111;50.814;4.572;2023-07-09T11:28:12;13.73;;;9.65;;
19897;SDS011;10111;50.814;4.572;2023-07-09T11:30:48;12.48;;;9.57;;
19897;SDS011;10111;50.814;4.572;2023-07-09T11:33:20;10.02;;;9.05;;
19897;SDS011;10111;50.814;4.572;2023-07-09T11:35:54;10.98;;;9.25;;
19897;SDS011;10111;50.814;4.572;2023-07-09T11:38:44;11.10;;;8.60;;
19897;SDS011;10111;50.814;4.572;2023-07-09T11:41:22;11.73;;;8.68;;
19897;SDS011;10111;50.814;4.572;2023-07-09T11:44:03;10.98;;;9.60;;
19897;SDS011;10111;50.814;4.572;2023-07-09T11:53:12;9.27;;;8.30;;
19897;SDS011;10111;50.814;4.572;2023-07-09T11:55:29;8.20;;;6.25;;
19897;SDS011;10111;50.814;4.572;2023-07-09T11:58:03;9.75;;;6.43;;
19897;SDS011;10111;50.814;4.572;2023-07-09T12:00:30;11.98;;;8.30;;
19897;SDS011;10111;50.814;4.572;2023-07-09T12:03:03;9.60;;;7.78;;
19897;SDS011;10111;50.814;4.572;2023-07-09T12:05:31;12.63;;;8.10;;
19897;SDS011;10111;50.814;4.572;2023-07-09T12:07:58;10.93;;;8.80;;
19897;SDS011;10111;50.814;4.572;2023-07-09T12:10:26;9.45;;;7.78;;
19897;SDS011;10111;50.814;4.572;2023-07-09T12:12:54;6.00;;;5.10;;
19897;SDS011;10111;50.814;4.572;2023-07-09T12:15:23;7.70;;;5.00;;
19897;SDS011;10111;50.814;4.572;2023-07-09T12:17:55;8.37;;;6.33;;
19897;SDS011;10111;50.814;4.572;2023-07-09T12:20:29;6.17;;;4.70;;
19897;SDS011;10111;50.814;4.572;2023-07-09T12:23:00;7.87;;;5.07;;
19897;SDS011;10111;50.814;4.572;2023-07-09T12:25:35;10.30;;;5.10;;
19897;SDS011;10111;50.814;4.572;2023-07-09T12:28:00;8.20;;;6.17;;
19897;SDS011;10111;50.814;4.572;2023-07-09T12:30:27;14.30;;;6.73;;
19897;SDS011;10111;50.814;4.572;2023-07-09T12:32:57;10.20;;;6.80;;
19897;SDS011;10111;50.814;4.572;2023-07-09T12:35:23;12.20;;;7.10;;
19897;SDS011;10111;50.814;4.572;2023-07-09T12:37:50;10.53;;;7.53;;
19897;SDS011;10111;50.814;4.572;2023-07-09T12:40:21;11.87;;;7.20;;
19897;SDS011;10111;50.814;4.572;2023-07-09T12:42:54;9.93;;;7.17;;
19897;SDS011;10111;50.814;4.572;2023-07-09T12:45:22;9.37;;;7.60;;
19897;SDS011;10111;50.814;4.572;2023-07-09T12:47:49;8.57;;;7.67;;
19897;SDS011;10111;50.814;4.572;2023-07-09T12:50:18;7.40;;;6.67;;
19897;SDS011;10111;50.814;4.572;2023-07-09T12:52:48;8.33;;;7.10;;
19897;SDS011;10111;50.814;4.572;2023-07-09T12:55:26;8.27;;;7.30;;
19897;SDS011;10111;50.814;4.572;2023-07-09T12:57:55;9.03;;;7.03;;
19897;SDS011;10111;50.814;4.572;2023-07-09T13:00:22;8.53;;;6.90;;
19897;SDS011;10111;50.814;4.572;2023-07-09T13:02:54;11.27;;;6.97;;
19897;SDS011;10111;50.814;4.572;2023-07-09T13:05:22;12.47;;;6.50;;
19897;SDS011;10111;50.814;4.572;2023-07-09T13:07:53;11.77;;;7.33;;
19897;SDS011;10111;50.814;4.572;2023-07-09T13:10:37;11.10;;;8.47;;
19897;SDS011;10111;50.814;4.572;2023-07-09T13:13:10;8.90;;;7.83;;
19897;SDS011;10111;50.814;4.572;2023-07-09T13:18:09;10.47;;;7.73;;
19897;SDS011;10111;50.814;4.572;2023-07-09T13:20:37;8.93;;;7.63;;
19897;SDS011;10111;50.814;4.572;2023-07-09T13:23:15;15.23;;;8.07;;
19897;SDS011;10111;50.814;4.572;2023-07-09T13:25:45;9.67;;;7.73;;
19897;SDS011;10111;50.814;4.572;2023-07-09T13:28:14;9.47;;;7.80;;
19897;SDS011;10111;50.814;4.572;2023-07-09T13:30:40;12.20;;;9.57;;
19897;SDS011;10111;50.814;4.572;2023-07-09T13:33:08;10.23;;;8.13;;
19897;SDS011;10111;50.814;4.572;2023-07-09T13:35:35;11.57;;;7.27;;
19897;SDS011;10111;50.814;4.572;2023-07-09T13:38:01;10.47;;;7.93;;
19897;SDS011;10111;50.814;4.572;2023-07-09T13:40:29;11.10;;;7.50;;
19897;SDS011;10111;50.814;4.572;2023-07-09T13:42:55;12.13;;;7.83;;
19897;SDS011;10111;50.814;4.572;2023-07-09T13:45:23;11.67;;;7.63;;
19897;SDS011;10111;50.814;4.572;2023-07-09T13:47:51;8.87;;;6.83;;
19897;SDS011;10111;50.814;4.572;2023-07-09T13:50:18;10.00;;;7.30;;
19897;SDS011;10111;50.814;4.572;2023-07-09T13:52:45;11.77;;;7.90;;
19897;SDS011;10111;50.814;4.572;2023-07-09T13:55:15;8.50;;;7.20;;
19897;SDS011;10111;50.814;4.572;2023-07-09T13:57:43;11.43;;;7.90;;
19897;SDS011;10111;50.814;4.572;2023-07-09T14:00:12;9.50;;;7.13;;
19897;SDS011;10111;50.814;4.572;2023-07-09T14:02:38;10.20;;;7.13;;
19897;SDS011;10111;50.814;4.572;2023-07-09T14:05:05;7.30;;;6.40;;
19897;SDS011;10111;50.814;4.572;2023-07-09T14:07:34;7.73;;;5.93;;
19897;SDS011;10111;50.814;4.572;2023-07-09T14:10:02;8.50;;;7.33;;
19897;SDS011;10111;50.814;4.572;2023-07-09T14:12:30;9.20;;;6.67;;
19897;SDS011;10111;50.814;4.572;2023-07-09T14:14:58;6.50;;;5.77;;
19897;SDS011;10111;50.814;4.572;2023-07-09T14:17:25;7.80;;;6.50;;
19897;SDS011;10111;50.814;4.572;2023-07-09T14:19:52;9.93;;;6.00;;
19897;SDS011;10111;50.814;4.572;2023-07-09T14:22:21;10.50;;;7.07;;
19897;SDS011;10111;50.814;4.572;2023-07-09T14:24:51;7.70;;;6.17;;
19897;SDS011;10111;50.814;4.572;2023-07-09T14:27:17;7.43;;;6.18;;
19897;SDS011;10111;50.814;4.572;2023-07-09T14:29:44;11.00;;;6.43;;
19897;SDS011;10111;50.814;4.572;2023-07-09T14:32:26;10.60;;;6.77;;
19897;SDS011;10111;50.814;4.572;2023-07-09T14:34:58;11.57;;;6.10;;
19897;SDS011;10111;50.814;4.572;2023-07-09T14:37:28;7.90;;;5.50;;
19897;SDS011;10111;50.814;4.572;2023-07-09T14:39:54;9.27;;;5.60;;
19897;SDS011;10111;50.814;4.572;2023-07-09T14:42:20;11.03;;;6.47;;
19897;SDS011;10111;50.814;4.572;2023-07-09T14:44:47;9.30;;;6.40;;
19897;SDS011;10111;50.814;4.572;2023-07-09T14:47:18;10.43;;;5.53;;
19897;SDS011;10111;50.814;4.572;2023-07-09T14:49:45;10.13;;;6.03;;
19897;SDS011;10111;50.814;4.572;2023-07-09T14:52:12;9.20;;;6.40;;
19897;SDS011;10111;50.814;4.572;2023-07-09T14:54:43;10.50;;;5.73;;
19897;SDS011;10111;50.814;4.572;2023-07-09T14:57:28;10.13;;;6.20;;
19897;SDS011;10111;50.814;4.572;2023-07-09T14:59:55;10.07;;;6.27;;
19897;SDS011;10111;50.814;4.572;2023-07-09T15:02:23;10.57;;;5.57;;
19897;SDS011;10111;50.814;4.572;2023-07-09T15:05:02;8.27;;;6.43;;
19897;SDS011;10111;50.814;4.572;2023-07-09T15:07:29;7.43;;;5.50;;
19897;SDS011;10111;50.814;4.572;2023-07-09T15:09:56;6.93;;;5.10;;
19897;SDS011;10111;50.814;4.572;2023-07-09T15:12:25;6.90;;;5.60;;
19897;SDS011;10111;50.814;4.572;2023-07-09T15:14:55;7.33;;;5.00;;
19897;SDS011;10111;50.814;4.572;2023-07-09T15:17:28;10.13;;;5.33;;
19897;SDS011;10111;50.814;4.572;2023-07-09T15:19:54;6.50;;;5.03;;
19897;SDS011;10111;50.814;4.572;2023-07-09T15:22:28;6.83;;;5.67;;
19897;SDS011;10111;50.814;4.572;2023-07-09T15:24:59;7.23;;;5.03;;